»·PEaware :: DAL360 KSLC-KGJT

DAL360 :: KSLC-KGJT

FLIGHT INFORMATION

Flight Status: Arrived
Operator:
Delta Air Lines
More flights by this operator :: More flights under this callsign
Pilot: Sergei F. (8485)
Aircraft: BOEING 737-300
(B733)
More flights by this aircraft type
Origin: KSLC Salt Lake City Intl
United States
Destination: KGJT Walker
United States
More flights between these airports :: More routes between these airports
Route: SLC4 TCH V21 FFU V134 JNC
File this flight plan on PilotEdge
Remarks:
Altitude:
(Current/Filed)
19,000ft
Speed:
(Current/Filed)
300kts
Departed: 13-Oct-17 05:22 PM
Arrived: 13-Oct-17 06:09 PM
Distance/Time
Traveled:
187nm/0:47
Distance/Time
To Go:
Arrived

Flight Plot

Page will automatically refresh every two minutes.

Flight plan parsing failed; only flown route is shown


Map Options




Map Legend


Flown Route
Filed Route
Departure Airport
Arrival Airport
Navaid (VOR, NDB)
Fix

Horizontal Profiles

Position Reports

Time Latitude Longitude Heading Altitude Ground
Speed
13-Oct-17 17:00 40.785567 -111.978031 227 4225ft 0kts
13-Oct-17 17:01 40.785567 -111.978031 227 4225ft 0kts
13-Oct-17 17:02 40.785567 -111.978031 227 4225ft 0kts
13-Oct-17 17:03 40.785567 -111.978031 227 4225ft 0kts
13-Oct-17 17:04 40.785567 -111.978031 227 4225ft 0kts
13-Oct-17 17:05 40.785567 -111.978031 227 4225ft 0kts
13-Oct-17 17:06 40.785567 -111.978031 227 4225ft 0kts
13-Oct-17 17:07 40.785567 -111.978031 227 4225ft 0kts
13-Oct-17 17:08 40.785567 -111.978031 227 4225ft 0kts
13-Oct-17 17:09 40.785567 -111.978031 227 4225ft 0kts
13-Oct-17 17:10 40.785918 -111.977526 227 4224ft 0kts
13-Oct-17 17:11 40.786137 -111.977212 227 4224ft 0kts
13-Oct-17 17:12 40.786503 -111.976686 227 4223ft 0kts
13-Oct-17 17:13 40.786510 -111.976671 174 4223ft 0kts
13-Oct-17 17:14 40.786510 -111.976671 174 4223ft 0kts
13-Oct-17 17:15 40.786510 -111.976671 174 4223ft 0kts
13-Oct-17 17:16 40.786510 -111.976671 175 4223ft 0kts
13-Oct-17 17:17 40.786510 -111.976671 175 4223ft 0kts
13-Oct-17 17:18 40.786489 -111.976669 173 4223ft 0kts
13-Oct-17 17:19 40.785492 -111.976562 175 4225ft 9kts
13-Oct-17 17:20 40.782442 -111.976212 175 4226ft 13kts
13-Oct-17 17:22 40.778386 -111.975736 175 4226ft 15kts
13-Oct-17 17:23 40.775211 -111.975349 163 4226ft 8kts
13-Oct-17 17:24 40.774493 -111.974524 102 4226ft 0kts
13-Oct-17 17:25 40.774493 -111.974524 102 4226ft 0kts
13-Oct-17 17:26 40.774472 -111.974371 97 4226ft 2kts
13-Oct-17 17:27 40.777244 -111.973432 354 4226ft 50kts
13-Oct-17 17:28 40.812303 -111.976616 351 4913ft 153kts
13-Oct-17 17:29 40.856840 -111.982001 351 6914ft 170kts
13-Oct-17 17:30 40.904360 -111.989961 311 9338ft 173kts
13-Oct-17 17:31 40.897828 -112.053718 251 10691ft 198kts
13-Oct-17 17:32 40.861854 -112.093956 164 13120ft 227kts
13-Oct-17 17:33 40.802476 -112.071267 177 15779ft 236kts
13-Oct-17 17:34 40.729825 -112.053820 176 17471ft 293kts
13-Oct-17 17:35 40.644699 -112.032587 176 19012ft 344kts
13-Oct-17 17:36 40.550374 -112.008880 176 19056ft 351kts
13-Oct-17 17:37 40.455383 -111.985161 176 19056ft 351kts
13-Oct-17 17:38 40.359738 -111.961367 176 19057ft 352kts
13-Oct-17 17:39 40.265376 -111.929951 150 19054ft 373kts
13-Oct-17 17:40 40.204416 -111.814926 132 19057ft 387kts
13-Oct-17 17:41 40.142964 -111.703556 134 19085ft 377kts
13-Oct-17 17:42 40.081524 -111.594010 133 19055ft 376kts
13-Oct-17 17:43 40.020493 -111.485450 134 19058ft 375kts
13-Oct-17 17:44 39.959002 -111.376569 133 19057ft 375kts
13-Oct-17 17:45 39.898374 -111.269061 134 19059ft 375kts
13-Oct-17 17:46 39.836814 -111.160847 134 19071ft 376kts
13-Oct-17 17:47 39.775057 -111.052354 134 19074ft 378kts
13-Oct-17 17:48 39.712627 -110.943024 133 19075ft 380kts
13-Oct-17 17:49 39.650019 -110.834784 133 19077ft 379kts
13-Oct-17 17:50 39.592865 -110.720401 114 19089ft 392kts
13-Oct-17 17:51 39.558699 -110.587361 114 19074ft 391kts
13-Oct-17 17:52 39.523262 -110.455562 115 19094ft 388kts
13-Oct-17 17:53 39.488973 -110.328639 115 19049ft 387kts
13-Oct-17 17:54 39.453661 -110.198098 115 19076ft 386kts
13-Oct-17 17:55 39.418211 -110.067970 115 19063ft 386kts
13-Oct-17 17:56 39.382562 -109.937791 115 19038ft 386kts
13-Oct-17 17:57 39.346892 -109.808153 115 19029ft 386kts
13-Oct-17 17:58 39.311065 -109.678598 115 19030ft 386kts
13-Oct-17 17:59 39.275031 -109.548951 115 19030ft 386kts
13-Oct-17 18:00 39.238823 -109.419281 114 17832ft 382kts
13-Oct-17 18:01 39.203902 -109.295847 114 16051ft 367kts
13-Oct-17 18:02 39.170210 -109.177566 113 14280ft 348kts
13-Oct-17 18:03 39.168526 -109.068719 42 12487ft 326kts
13-Oct-17 18:04 39.239623 -109.008992 30 11141ft 288kts
13-Oct-17 18:05 39.301814 -108.956323 41 10046ft 253kts
13-Oct-17 18:06 39.311703 -108.876023 101 8999ft 226kts
13-Oct-17 18:07 39.284865 -108.810104 135 9004ft 187kts
13-Oct-17 18:08 39.253917 -108.761912 133 8674ft 170kts
13-Oct-17 18:09 39.226780 -108.712824 129 7732ft 168kts
13-Oct-17 18:10 39.200672 -108.663422 127 6819ft 165kts
13-Oct-17 18:11 39.174823 -108.616309 130 6120ft 161kts
13-Oct-17 18:12 39.148745 -108.569625 127 5278ft 158kts
13-Oct-17 18:13 39.127497 -108.530769 123 4843ft 47kts
13-Oct-17 18:14 39.123971 -108.525180 189 4851ft 5kts
13-Oct-17 18:15 39.123827 -108.526457 306 4846ft 6kts
13-Oct-17 18:16 39.123998 -108.528246 227 4839ft 3kts
13-Oct-17 18:17 39.123295 -108.528944 212 4834ft 0kts
13-Oct-17 18:18 39.123295 -108.528944 212 4834ft 0kts

Navigation Log

Ident Type
Flight plan parsing failed, navigation log unavailable